In Rescue
 
Open Full Screen Window  High Contrast Mode
Wind Gusting 20 knots
15
May 13, 2021 9:57 AM CDT
Weather Information
Wind Direction
  210 °
Wind Speed
  15 kt (17 mph)
Wind Gust
  20 kt (23 mph)
Altimeter
30.33 in
Visibility
10 SM
Temperature
18° C
64° F
Dewpoint
-02° C
28° F
Humidity
26%
1hr Rain Fall
00.00 in.
24hr Rain Fall
00.00 in.
Sky Condition
Clear
VFR

METAR KBDH 131457Z AUTO 21015G20KT 10SM CLR 18/M02 A3033 RMK AO2

FAA Disclaimer: The data displayed is for advisory purposes only and is not to be used for flight planning or operations.